createdAt,value
2022-10-30T00:00:50.694Z,16.80
2022-10-30T00:03:18.210Z,16.80
2022-10-30T00:05:47.513Z,16.80
2022-10-30T00:08:16.127Z,16.70
2022-10-30T00:10:43.705Z,16.70
2022-10-30T00:13:11.272Z,16.70
2022-10-30T00:15:38.800Z,16.70
2022-10-30T00:18:06.636Z,16.70
2022-10-30T00:20:35.699Z,16.60
2022-10-30T00:23:05.768Z,16.60
2022-10-30T00:25:34.405Z,16.60
2022-10-30T00:28:05.607Z,16.60
2022-10-30T00:30:32.880Z,16.60
2022-10-30T00:33:00.047Z,16.60
2022-10-30T00:35:27.105Z,16.50
2022-10-30T00:37:54.069Z,16.50
2022-10-30T00:40:21.397Z,16.50
2022-10-30T00:42:48.232Z,16.50
2022-10-30T00:45:18.110Z,16.40
2022-10-30T00:47:55.058Z,16.40
2022-10-30T00:50:30.743Z,16.40
2022-10-30T00:53:01.951Z,16.40
2022-10-30T00:55:40.286Z,16.40
2022-10-30T00:58:11.522Z,16.40
2022-10-30T01:00:42.245Z,16.40
2022-10-30T01:03:09.733Z,16.30
2022-10-30T01:05:37.010Z,16.30
2022-10-30T01:08:03.816Z,16.30
2022-10-30T01:10:30.649Z,16.30
2022-10-30T01:12:59.400Z,16.30
2022-10-30T01:15:40.209Z,16.30
2022-10-30T01:18:34.699Z,16.30
2022-10-30T01:21:12.074Z,16.20
2022-10-30T01:23:54.018Z,16.20
2022-10-30T01:26:39.848Z,16.20
2022-10-30T01:29:29.303Z,16.20
2022-10-30T01:32:06.893Z,16.10
2022-10-30T01:34:57.823Z,16.10
2022-10-30T01:37:42.242Z,16.10
2022-10-30T01:40:13.198Z,16.10
2022-10-30T01:42:48.991Z,16.10
2022-10-30T01:45:33.761Z,16.10
2022-10-30T01:48:09.139Z,16.10
2022-10-30T01:50:43.419Z,16.00
2022-10-30T01:53:33.596Z,16.00
2022-10-30T01:56:28.936Z,16.00
2022-10-30T01:59:25.603Z,16.00
2022-10-30T02:01:54.752Z,16.00
2022-10-30T02:04:21.880Z,15.90
2022-10-30T02:06:48.722Z,15.90
2022-10-30T02:09:19.048Z,15.90
2022-10-30T02:11:46.959Z,15.90
2022-10-30T02:14:19.839Z,15.90
2022-10-30T02:16:50.290Z,15.90
2022-10-30T02:19:17.624Z,15.90
2022-10-30T02:21:44.541Z,15.90
2022-10-30T02:24:11.241Z,15.80
2022-10-30T02:26:39.028Z,15.80
2022-10-30T02:29:05.971Z,15.80
2022-10-30T02:31:34.570Z,15.80
2022-10-30T02:34:01.412Z,15.80
2022-10-30T02:36:28.148Z,15.80
2022-10-30T02:38:55.330Z,15.70
2022-10-30T02:41:23.208Z,15.70
2022-10-30T02:43:51.704Z,15.70
2022-10-30T02:46:18.430Z,15.70
2022-10-30T02:48:45.205Z,15.70
2022-10-30T02:51:12.405Z,15.60
2022-10-30T02:53:39.191Z,15.60
2022-10-30T02:56:10.780Z,15.60
2022-10-30T02:58:37.485Z,15.60
2022-10-30T03:01:12.093Z,15.60
2022-10-30T03:03:39.660Z,15.60
2022-10-30T03:06:09.734Z,15.60
2022-10-30T03:08:36.976Z,15.60
2022-10-30T03:11:09.546Z,15.60
2022-10-30T03:13:37.490Z,15.60
2022-10-30T03:16:09.659Z,15.50
2022-10-30T03:18:36.923Z,15.50
2022-10-30T03:21:06.198Z,15.50
2022-10-30T03:23:33.243Z,15.50
2022-10-30T03:26:00.224Z,15.50
2022-10-30T03:28:28.838Z,15.50
2022-10-30T03:31:07.523Z,15.50
2022-10-30T03:33:34.940Z,15.40
2022-10-30T03:36:02.936Z,15.40
2022-10-30T03:38:29.985Z,15.40
2022-10-30T03:40:56.819Z,15.40
2022-10-30T03:43:23.569Z,15.40
2022-10-30T03:45:53.000Z,15.40
2022-10-30T03:48:24.172Z,15.40
2022-10-30T03:50:57.237Z,15.40
2022-10-30T03:53:26.339Z,15.40
2022-10-30T03:55:57.340Z,15.30
2022-10-30T03:58:24.077Z,15.30
2022-10-30T04:00:50.786Z,15.30
2022-10-30T04:03:17.532Z,15.30
2022-10-30T04:05:44.371Z,15.30
2022-10-30T04:08:13.422Z,15.20
2022-10-30T04:10:47.947Z,15.20
2022-10-30T04:13:17.246Z,15.20
2022-10-30T04:15:44.118Z,15.20
2022-10-30T04:18:16.375Z,15.10
2022-10-30T04:20:43.713Z,15.10
2022-10-30T04:23:17.489Z,15.10
2022-10-30T04:25:44.719Z,15.10
2022-10-30T04:28:12.061Z,15.00
2022-10-30T04:30:39.772Z,15.00
2022-10-30T04:33:10.104Z,15.00
2022-10-30T04:35:37.697Z,15.00
2022-10-30T04:38:15.382Z,14.90
2022-10-30T04:40:43.355Z,14.90
2022-10-30T04:43:11.306Z,14.90
2022-10-30T04:45:38.707Z,14.90
2022-10-30T04:48:12.298Z,14.90
2022-10-30T04:50:43.370Z,14.90
2022-10-30T04:53:15.471Z,14.90
2022-10-30T04:55:44.330Z,14.90
2022-10-30T04:58:12.331Z,14.90
2022-10-30T05:00:39.169Z,14.90
2022-10-30T05:03:06.011Z,14.90
2022-10-30T05:05:32.931Z,14.90
2022-10-30T05:08:00.113Z,14.90
2022-10-30T05:10:27.376Z,14.90
2022-10-30T05:12:54.430Z,14.90
2022-10-30T05:15:21.349Z,14.80
2022-10-30T05:17:52.437Z,14.80
2022-10-30T05:20:19.510Z,14.80
2022-10-30T05:22:46.573Z,14.80
2022-10-30T05:25:13.575Z,14.80
2022-10-30T05:27:40.335Z,14.80
2022-10-30T05:30:07.702Z,14.80
2022-10-30T05:32:34.570Z,14.70
2022-10-30T05:35:01.546Z,14.70
2022-10-30T05:37:28.465Z,14.70
2022-10-30T05:39:55.206Z,14.70
2022-10-30T05:42:21.944Z,14.60
2022-10-30T05:45:00.884Z,14.60
2022-10-30T05:47:28.128Z,14.60
2022-10-30T05:49:54.893Z,14.60
2022-10-30T05:52:21.712Z,14.50
2022-10-30T05:54:48.429Z,14.50
2022-10-30T05:57:15.197Z,14.50
2022-10-30T05:59:41.888Z,14.50
2022-10-30T06:02:08.979Z,14.40
2022-10-30T06:04:38.448Z,14.40
2022-10-30T06:07:05.301Z,14.40
2022-10-30T06:09:32.163Z,14.40
2022-10-30T06:11:59.016Z,14.40
2022-10-30T06:14:25.854Z,14.30
2022-10-30T06:16:52.666Z,14.30
2022-10-30T06:19:21.814Z,14.30
2022-10-30T06:21:48.605Z,14.30
2022-10-30T06:24:15.448Z,14.30
2022-10-30T06:26:42.173Z,14.30
2022-10-30T06:29:08.845Z,14.20
2022-10-30T06:31:35.763Z,14.20
2022-10-30T06:34:02.613Z,14.20
2022-10-30T06:36:29.655Z,14.20
2022-10-30T06:38:56.590Z,14.20
2022-10-30T06:41:26.145Z,14.10
2022-10-30T06:43:57.296Z,14.20
2022-10-30T06:46:27.071Z,14.10
2022-10-30T06:48:57.875Z,14.10
2022-10-30T06:51:24.920Z,14.10
2022-10-30T06:53:51.605Z,14.10
2022-10-30T06:56:18.332Z,14.10
2022-10-30T06:58:45.120Z,14.10
2022-10-30T07:01:11.909Z,14.10
2022-10-30T07:03:38.722Z,14.10
2022-10-30T07:06:05.795Z,14.10
2022-10-30T07:08:32.701Z,14.10
2022-10-30T07:10:59.562Z,14.10
2022-10-30T07:13:29.094Z,14.20
2022-10-30T07:15:55.864Z,14.20
2022-10-30T07:18:22.571Z,14.20
2022-10-30T07:21:07.111Z,14.20
2022-10-30T07:23:33.840Z,14.30
2022-10-30T07:26:03.822Z,14.30
2022-10-30T07:28:31.687Z,14.30
2022-10-30T07:30:59.085Z,14.30
2022-10-30T07:33:26.218Z,14.40
2022-10-30T07:35:52.946Z,14.40
2022-10-30T07:38:19.660Z,14.40
2022-10-30T07:40:53.429Z,14.40
2022-10-30T07:43:20.216Z,14.50
2022-10-30T07:45:49.691Z,14.50
2022-10-30T07:48:16.554Z,14.60
2022-10-30T07:50:43.307Z,14.60
2022-10-30T07:53:10.063Z,14.60
2022-10-30T07:55:36.793Z,14.70
2022-10-30T07:58:03.535Z,14.70
2022-10-30T08:00:39.088Z,14.80
2022-10-30T08:03:06.581Z,14.80
2022-10-30T08:05:33.289Z,14.90
2022-10-30T08:08:00.266Z,15.20
2022-10-30T08:10:27.622Z,15.80
2022-10-30T08:12:54.560Z,16.40
2022-10-30T08:15:21.491Z,17.00
2022-10-30T08:17:49.780Z,17.80
2022-10-30T08:20:19.468Z,18.60
2022-10-30T08:22:51.303Z,19.10
2022-10-30T08:25:20.341Z,19.40
2022-10-30T08:27:58.570Z,19.80
2022-10-30T08:30:30.750Z,20.10
2022-10-30T08:33:02.842Z,20.40
2022-10-30T08:35:29.996Z,20.70
2022-10-30T08:37:58.007Z,20.90
2022-10-30T08:40:26.478Z,20.80
2022-10-30T08:42:55.040Z,20.60
2022-10-30T08:45:29.940Z,20.30
2022-10-30T08:48:01.155Z,20.00
2022-10-30T08:50:28.313Z,19.80
2022-10-30T08:52:55.250Z,19.60
2022-10-30T08:55:23.391Z,19.40
2022-10-30T08:57:50.119Z,19.30
2022-10-30T09:00:16.997Z,19.20
2022-10-30T09:02:45.421Z,19.10
2022-10-30T09:05:12.418Z,19.10
2022-10-30T09:07:39.168Z,19.10
2022-10-30T09:10:06.586Z,19.10
2022-10-30T09:12:33.457Z,19.10
2022-10-30T09:15:00.312Z,19.20
2022-10-30T09:17:27.208Z,19.20
2022-10-30T09:19:54.054Z,19.20
2022-10-30T09:22:20.786Z,19.30
2022-10-30T09:24:48.827Z,19.30
2022-10-30T09:27:15.706Z,19.40
2022-10-30T09:29:42.460Z,19.50
2022-10-30T09:32:10.558Z,19.50
2022-10-30T09:34:38.421Z,19.60
2022-10-30T09:37:05.483Z,19.70
2022-10-30T09:39:34.883Z,19.70
2022-10-30T09:42:22.309Z,19.80
2022-10-30T09:45:08.092Z,19.90
2022-10-30T09:47:44.300Z,19.90
2022-10-30T09:50:47.133Z,20.00
2022-10-30T09:53:23.783Z,20.20
2022-10-30T09:56:10.841Z,20.30
2022-10-30T09:59:01.693Z,20.50
2022-10-30T10:01:47.975Z,20.60
2022-10-30T10:04:27.018Z,20.70
2022-10-30T10:07:04.410Z,20.80
2022-10-30T10:09:34.616Z,20.90
2022-10-30T10:12:26.286Z,21.00
2022-10-30T10:14:55.498Z,21.10
2022-10-30T10:17:33.612Z,21.10
2022-10-30T10:20:02.115Z,21.20
2022-10-30T10:22:46.823Z,21.40
2022-10-30T10:25:17.178Z,21.60
2022-10-30T10:28:21.735Z,21.80
2022-10-30T10:31:04.437Z,21.80
2022-10-30T10:33:58.504Z,21.90
2022-10-30T10:36:54.154Z,22.10
2022-10-30T10:39:29.169Z,22.20
2022-10-30T10:42:08.277Z,22.30
2022-10-30T10:45:12.784Z,22.30
2022-10-30T10:48:08.279Z,22.40
2022-10-30T10:50:48.665Z,22.50
2022-10-30T10:53:22.692Z,22.60
2022-10-30T10:55:52.832Z,22.70
2022-10-30T10:58:36.469Z,22.80
2022-10-30T11:01:09.420Z,22.90
2022-10-30T11:03:52.734Z,22.90
2022-10-30T11:06:28.534Z,23.00
2022-10-30T11:09:14.371Z,23.10
2022-10-30T11:11:41.040Z,23.10
2022-10-30T11:14:24.846Z,23.10
2022-10-30T11:17:13.365Z,23.20
2022-10-30T11:19:40.297Z,23.30
2022-10-30T11:22:37.128Z,23.40
2022-10-30T11:25:26.804Z,23.40
2022-10-30T11:27:59.630Z,23.60
2022-10-30T11:30:28.918Z,23.70
2022-10-30T11:32:59.562Z,23.80
2022-10-30T11:35:26.701Z,23.90
2022-10-30T11:38:14.214Z,23.90
2022-10-30T11:40:48.625Z,23.90
2022-10-30T11:43:19.997Z,23.90
2022-10-30T11:45:47.313Z,23.90
2022-10-30T11:48:26.035Z,24.00
2022-10-30T11:51:00.052Z,24.00
2022-10-30T11:53:38.694Z,23.90
2022-10-30T11:56:18.696Z,23.90
2022-10-30T11:58:59.890Z,23.90
2022-10-30T12:01:35.837Z,23.90
2022-10-30T12:04:35.120Z,23.90
2022-10-30T12:07:16.986Z,23.90
2022-10-30T12:09:48.003Z,23.80
2022-10-30T12:12:38.477Z,23.70
2022-10-30T12:15:14.543Z,23.60
2022-10-30T12:17:50.334Z,23.50
2022-10-30T12:20:17.350Z,23.40
2022-10-30T12:22:44.223Z,23.40
2022-10-30T12:25:31.360Z,23.40
2022-10-30T12:28:05.596Z,23.30
2022-10-30T12:30:37.042Z,23.20
2022-10-30T12:33:09.281Z,23.10
2022-10-30T12:35:35.910Z,23.00
2022-10-30T12:38:07.323Z,22.90
2022-10-30T12:40:42.471Z,22.90
2022-10-30T12:43:24.328Z,22.90
2022-10-30T12:46:19.389Z,22.90
2022-10-30T12:49:16.497Z,22.80
2022-10-30T12:51:56.508Z,22.80
2022-10-30T12:54:33.987Z,22.70
2022-10-30T12:57:16.740Z,22.70
2022-10-30T13:00:05.238Z,22.70
2022-10-30T13:03:00.402Z,22.60
2022-10-30T13:05:34.345Z,22.60
2022-10-30T13:08:05.195Z,22.60
2022-10-30T13:10:44.324Z,22.70
2022-10-30T13:13:20.641Z,22.70
2022-10-30T13:15:51.409Z,22.80
2022-10-30T13:18:24.107Z,22.80
2022-10-30T13:21:03.116Z,22.80
2022-10-30T13:23:50.942Z,22.80
2022-10-30T13:26:17.707Z,22.70
2022-10-30T13:29:01.549Z,22.60
2022-10-30T13:31:52.938Z,22.50
2022-10-30T13:34:57.137Z,22.40
2022-10-30T13:37:49.623Z,22.30
2022-10-30T13:40:32.065Z,22.20
2022-10-30T13:43:30.091Z,22.10
2022-10-30T13:46:09.550Z,22.10
2022-10-30T13:48:52.802Z,22.10
2022-10-30T13:51:30.846Z,22.10
2022-10-30T13:54:20.629Z,22.10
2022-10-30T13:56:48.702Z,22.10
2022-10-30T13:59:47.205Z,22.00
2022-10-30T14:02:41.369Z,22.10
2022-10-30T14:05:14.306Z,22.00
2022-10-30T14:08:11.788Z,22.10
2022-10-30T14:10:47.407Z,22.10
2022-10-30T14:13:48.242Z,22.10
2022-10-30T14:16:53.838Z,22.20
2022-10-30T14:19:20.631Z,22.20
2022-10-30T14:21:58.306Z,22.20
2022-10-30T14:24:29.538Z,22.20
2022-10-30T14:27:05.625Z,22.20
2022-10-30T14:29:38.299Z,22.20
2022-10-30T14:32:14.051Z,22.10
2022-10-30T14:34:45.297Z,22.10
2022-10-30T14:37:13.097Z,22.10
2022-10-30T14:39:44.796Z,22.00
2022-10-30T14:42:38.689Z,22.00
2022-10-30T14:45:16.389Z,22.00
2022-10-30T14:47:55.545Z,22.00
2022-10-30T14:50:37.128Z,21.90
2022-10-30T14:53:55.228Z,21.90
2022-10-30T14:56:41.391Z,21.80
2022-10-30T14:59:13.893Z,21.80
2022-10-30T15:01:59.691Z,21.70
2022-10-30T15:05:12.846Z,21.70
2022-10-30T15:08:05.869Z,21.60
2022-10-30T15:10:36.627Z,21.50
2022-10-30T15:13:15.052Z,21.50
2022-10-30T15:15:43.096Z,21.50
2022-10-30T15:18:16.009Z,21.40
2022-10-30T15:20:42.913Z,21.40
2022-10-30T15:23:18.902Z,21.30
2022-10-30T15:25:55.023Z,21.30
2022-10-30T15:31:06.384Z,21.20
2022-10-30T15:33:37.648Z,21.10
2022-10-30T15:36:05.528Z,21.00
2022-10-30T15:38:32.420Z,21.00
2022-10-30T15:41:02.058Z,20.90
2022-10-30T15:43:35.057Z,20.80
2022-10-30T15:46:08.253Z,20.80
2022-10-30T15:48:35.503Z,20.70
2022-10-30T15:51:21.085Z,20.60
2022-10-30T15:53:54.716Z,20.60
2022-10-30T15:56:31.194Z,20.50
2022-10-30T15:59:06.471Z,20.40
2022-10-30T16:01:44.503Z,20.30
2022-10-30T16:04:18.570Z,20.20
2022-10-30T16:06:57.708Z,20.10
2022-10-30T16:09:25.833Z,20.00
2022-10-30T16:11:55.286Z,19.80
2022-10-30T16:14:29.854Z,19.70
2022-10-30T16:17:00.442Z,19.70
2022-10-30T16:19:30.555Z,19.50
2022-10-30T16:21:59.442Z,19.40
2022-10-30T16:24:32.473Z,19.40
2022-10-30T16:27:13.687Z,19.30
2022-10-30T16:29:41.007Z,19.20
2022-10-30T16:32:17.660Z,19.10
2022-10-30T16:34:46.118Z,19.10
2022-10-30T16:37:21.800Z,19.00
2022-10-30T16:39:50.881Z,18.90
2022-10-30T16:42:22.303Z,18.90
2022-10-30T16:45:07.594Z,18.80
2022-10-30T16:47:38.878Z,18.70
2022-10-30T16:50:07.368Z,18.70
2022-10-30T16:52:41.006Z,18.60
2022-10-30T16:55:20.178Z,18.50
2022-10-30T16:57:53.150Z,18.50
2022-10-30T17:00:25.903Z,18.50
2022-10-30T17:02:56.172Z,18.40
2022-10-30T17:05:30.247Z,18.40
2022-10-30T17:08:04.215Z,18.40
2022-10-30T17:10:36.933Z,18.40
2022-10-30T17:13:30.841Z,18.40
2022-10-30T17:15:57.827Z,18.30
2022-10-30T17:18:35.396Z,18.30
2022-10-30T17:21:11.755Z,18.30
2022-10-30T17:23:48.497Z,18.30
2022-10-30T17:26:16.751Z,18.30
2022-10-30T17:28:44.560Z,18.30
2022-10-30T17:31:40.127Z,18.30
2022-10-30T17:34:18.273Z,18.20
2022-10-30T17:36:46.613Z,18.20
2022-10-30T17:39:13.715Z,18.20
2022-10-30T17:41:41.129Z,18.20
2022-10-30T17:44:21.125Z,18.20
2022-10-30T17:46:47.930Z,18.10
2022-10-30T17:49:24.984Z,18.10
2022-10-30T17:51:51.817Z,18.00
2022-10-30T17:54:18.573Z,18.00
2022-10-30T17:56:45.427Z,18.00
2022-10-30T17:59:12.193Z,17.90
2022-10-30T18:01:40.999Z,17.90
2022-10-30T18:04:20.879Z,17.80
2022-10-30T18:06:51.333Z,17.80
2022-10-30T18:09:18.109Z,17.70
2022-10-30T18:11:44.876Z,17.70
2022-10-30T18:14:12.346Z,17.70
2022-10-30T18:16:39.423Z,17.70
2022-10-30T18:19:10.175Z,17.70
2022-10-30T18:21:37.298Z,17.60
2022-10-30T18:24:12.694Z,17.60
2022-10-30T18:26:40.900Z,17.60
2022-10-30T18:29:08.542Z,17.50
2022-10-30T18:31:36.105Z,17.50
2022-10-30T18:34:03.293Z,17.50
2022-10-30T18:36:30.895Z,17.50
2022-10-30T18:38:58.306Z,17.40
2022-10-30T18:41:36.650Z,17.40
2022-10-30T18:44:05.606Z,17.40
2022-10-30T18:46:34.085Z,17.40
2022-10-30T18:49:01.030Z,17.40
2022-10-30T18:51:28.556Z,17.30
2022-10-30T18:53:56.928Z,17.30
2022-10-30T18:56:29.026Z,17.30
2022-10-30T18:59:01.556Z,17.30
2022-10-30T19:01:32.617Z,17.30
2022-10-30T19:04:02.059Z,17.30
2022-10-30T19:06:29.148Z,17.30
2022-10-30T19:08:57.451Z,17.30
2022-10-30T19:11:25.400Z,17.30
2022-10-30T19:13:53.610Z,17.30
2022-10-30T19:16:21.706Z,17.20
2022-10-30T19:18:48.825Z,17.20
2022-10-30T19:21:24.945Z,17.20
2022-10-30T19:23:51.881Z,17.20
2022-10-30T19:26:18.762Z,17.20
2022-10-30T19:28:46.008Z,17.10
2022-10-30T19:31:17.604Z,17.10
2022-10-30T19:33:44.912Z,17.10
2022-10-30T19:36:36.297Z,17.10
2022-10-30T19:39:11.342Z,17.10
2022-10-30T19:41:38.951Z,17.10
2022-10-30T19:44:06.866Z,17.00
2022-10-30T19:46:33.709Z,17.00
2022-10-30T19:49:00.835Z,17.00
2022-10-30T19:51:28.622Z,17.00
2022-10-30T19:53:56.085Z,17.00
2022-10-30T19:56:23.483Z,17.00
2022-10-30T19:58:50.493Z,16.90
2022-10-30T20:01:17.594Z,16.90
2022-10-30T20:03:44.558Z,16.90
2022-10-30T20:06:14.703Z,16.90
2022-10-30T20:08:44.706Z,16.80
2022-10-30T20:11:11.553Z,16.80
2022-10-30T20:13:38.397Z,16.80
2022-10-30T20:16:06.105Z,16.80
2022-10-30T20:18:38.103Z,16.80
2022-10-30T20:21:13.252Z,16.70
2022-10-30T20:23:40.186Z,16.70
2022-10-30T20:26:28.124Z,16.70
2022-10-30T20:28:55.693Z,16.70
2022-10-30T20:31:22.663Z,16.70
2022-10-30T20:33:49.462Z,16.70
2022-10-30T20:36:16.297Z,16.60
2022-10-30T20:38:46.129Z,16.60
2022-10-30T20:41:28.130Z,16.60
2022-10-30T20:43:55.741Z,16.60
2022-10-30T20:46:22.627Z,16.50
2022-10-30T20:48:49.570Z,16.50
2022-10-30T20:51:16.574Z,16.50
2022-10-30T20:53:43.391Z,16.40
2022-10-30T20:56:11.602Z,16.40
2022-10-30T20:58:38.578Z,16.40
2022-10-30T21:01:05.694Z,16.40
2022-10-30T21:03:32.468Z,16.30
2022-10-30T21:06:01.649Z,16.30
2022-10-30T21:08:31.407Z,16.30
2022-10-30T21:11:01.140Z,16.30
2022-10-30T21:13:28.964Z,16.30
2022-10-30T21:16:00.741Z,16.30
2022-10-30T21:18:27.650Z,16.30
2022-10-30T21:20:54.434Z,16.20
2022-10-30T21:23:21.506Z,16.20
2022-10-30T21:25:48.375Z,16.20
2022-10-30T21:28:15.170Z,16.20
2022-10-30T21:30:41.851Z,16.20
2022-10-30T21:33:08.566Z,16.10
2022-10-30T21:35:35.337Z,16.10
2022-10-30T21:38:02.513Z,16.10
2022-10-30T21:40:29.310Z,16.10
2022-10-30T21:42:58.544Z,16.10
2022-10-30T21:45:28.171Z,16.10
2022-10-30T21:47:54.854Z,16.00
2022-10-30T21:50:21.618Z,16.00
2022-10-30T21:52:48.378Z,16.00
2022-10-30T21:55:15.194Z,16.00
2022-10-30T21:57:41.953Z,15.90
2022-10-30T22:00:09.181Z,15.90
2022-10-30T22:02:35.853Z,15.90
2022-10-30T22:05:02.645Z,15.80
2022-10-30T22:07:29.409Z,15.80
2022-10-30T22:09:56.361Z,15.80
2022-10-30T22:12:23.160Z,15.70
2022-10-30T22:14:49.835Z,15.70
2022-10-30T22:17:18.833Z,15.70
2022-10-30T22:19:45.500Z,15.70
2022-10-30T22:22:12.265Z,15.60
2022-10-30T22:24:39.111Z,15.60
2022-10-30T22:27:05.814Z,15.60
2022-10-30T22:29:32.486Z,15.50
2022-10-30T22:31:59.325Z,15.50
2022-10-30T22:34:26.050Z,15.40
2022-10-30T22:36:52.835Z,15.40
2022-10-30T22:39:19.909Z,15.40
2022-10-30T22:41:46.842Z,15.30
2022-10-30T22:44:17.347Z,15.30
2022-10-30T22:46:44.516Z,15.30
2022-10-30T22:49:14.100Z,15.30
2022-10-30T22:51:40.867Z,15.30
2022-10-30T22:54:12.254Z,15.30
2022-10-30T22:56:40.492Z,15.30
2022-10-30T22:59:10.697Z,15.30
2022-10-30T23:01:38.873Z,15.20
2022-10-30T23:04:07.687Z,15.20
2022-10-30T23:06:35.790Z,15.20
2022-10-30T23:09:05.787Z,15.10
2022-10-30T23:11:33.317Z,15.10
2022-10-30T23:14:00.114Z,15.10
2022-10-30T23:16:29.880Z,15.10
2022-10-30T23:18:58.384Z,15.10
2022-10-30T23:21:27.579Z,15.10
2022-10-30T23:23:57.587Z,15.00
2022-10-30T23:26:32.581Z,15.00
2022-10-30T23:29:00.456Z,15.00
2022-10-30T23:31:35.884Z,14.90
2022-10-30T23:34:09.463Z,14.90
2022-10-30T23:36:36.887Z,14.90
2022-10-30T23:39:07.007Z,14.90
2022-10-30T23:41:36.236Z,14.80
2022-10-30T23:44:05.726Z,14.80
2022-10-30T23:46:34.384Z,14.80
2022-10-30T23:49:02.484Z,14.80
2022-10-30T23:51:29.359Z,14.70
2022-10-30T23:53:56.044Z,14.70
2022-10-30T23:56:23.107Z,14.70
2022-10-30T23:58:51.473Z,14.70
